Terminal Aerodrome Forecast
Issued by NWS Cleveland, OH

Home | Current Version | Previous Version | Text Only | Print | Product List | Glossary Off
Versions: 1 2 3 4 5 6 7 8 9 10 11 12 13 14 15 16 17 18 19 20 21

000
FTUS41 KCLE 272332
TAFYNG
TAF
KYNG 272332Z 2800/2824 36010KT P6SM OVC200
     FM280800 05010KT P6SM OVC080
     FM281300 08012KT 4SM -RA BR OVC025
     FM281600 08010KT 4SM -RA BR OVC007
     FM282100 07007KT P6SM OVC007=

USA.gov is the U.S. government's official web portal to all federal, state and local government web resources and services.